Lake Charles, LA

7:30 PM CDT on March 30, 2015 (GMT -0500)
Jennings | | Change Station
CLOSE
Current Station
Airport
Location: Jennings,
Elevation: 23 ft
Nearby Weather Stations
Active Advisory: Flood Warning

Elev 23 ft 30.24 °N, 92.67 °W | Updated 15 minutes ago

Clear
Clear
73 °F
Feels Like 73 °F
N
5
Wind Variable Wind from SW

Today
High -- | Low -- °F
--% Chance of Precip.
Yesterday
High -- | Low -- °F
Precip. -- in
7:04 AM 7:30 PM
Waxing Gibbous, 83% visible
Pressure 30.13 in
Visibility 10.0 miles
Clouds Clear
Dew Point 61 °F
Humidity 65%
Rainfall 0.00 in
Snow Depth Not available.
UV 0 out of 12
Pollen 11.80 out of 12
Air Quality Not available.
Flu Activity Not available.
METAR K3R7 310015Z AUTO 22004KT 10SM CLR 23/16 A3013 RMK AO2 T02270159

More Conditions Fewer Conditions

Pressure 30.13 in
Visibility 10.0 miles
Clouds Clear
Dew Point 61 °F
Humidity 65%
Rainfall 0.00 in
Snow Depth Not available.
UV 0 out of 12
Pollen 11.80 out of 12
Air Quality Not available.
Flu Activity Not available.
METAR K3R7 310015Z AUTO 22004KT 10SM CLR 23/16 A3013 RMK AO2 T02270159

More Conditions Fewer Conditions

10-Day Weather Forecast

Almanac

Astronomy

Mar. 30, 2015 Rise Set
Actual Time
Civil Twilight
Nautical Twilight
Astronomical Twilight
Moon
Length of Visible Light
Length of Day
Tomorrow will be .
, % of the Moon is Illuminated

Today's Extremes

State Highs State Lows

Community

WunderPhotos

Upload Photos

1,809,628 photos uploaded!

WunderBlogs® & News

Nearby

Air Quality

  Air Quality AQ Index Pollutant
Not available.

Snow Depth

Station Depth Elevation

Earthquake Activity

City Distance Mag. Time & Date
Minimum magnitude displayed is 2.5.

Coastal Water Temperatures

Place Temperature

Stations

Nearby Weather Stations

Station Location Temp. Windchill Dew Point Humidity Wind Precip. Elev Updated Type
                   
Flood Warning
Statement as of 8:47 AM CDT on March 30, 2015

... Flood Warning extended until Friday morning... the Flood Warning
continues for
the Sabine River near Deweyville.
* Until Friday morning... or until the warning is cancelled.
* At 7:45 am Monday the stage was 25.3 feet.
* Minor flooding is occurring and minor flooding is forecast.
* Flood stage is 24.0 feet.
* Forecast... the river will continue to fall to below flood stage by
Thursday before midnight.
* Impact... at stages near 25.0 feet... lowest roads beside the river
flood around Deweyville and subject to being closed. In addition,
low-lying roads in southwest Beauregard Parish are flooded
including Robert Clark Road. Flooding occurs on the south side of
Niblett Bluff park with access roads to Camp houses cut off around
the park. Access roads to the river in northeastern Orange County
become flooded.


Lat... Lon 3061 9376 3031 9381 3008 9378 3005 9367
      3044 9364 3057 9363